Time;durP1;ratioP1;P1;durP2;ratioP2;P2;SDS_P1;SDS_P2;PMS_P1;PMS_P2;Temp;Humidity;BMP_temperature;BMP_pressure;BME280_temperature;BME280_humidity;BME280_pressure;Samples;Min_cycle;Max_cycle;Signal;HPM_P1;HPM_P2
2022/08/26 00:01:13;;;;;;;22.55;12.80;;;;;;;18.42;100.00;95305.63;5086852;28;20128;-75
2022/08/26 00:03:38;;;;;;;21.92;12.73;;;;;;;18.30;100.00;95298.34;5094081;28;20036;-75
2022/08/26 00:06:05;;;;;;;23.58;12.82;;;;;;;18.21;100.00;95289.66;5093109;28;20047;-75
2022/08/26 00:08:31;;;;;;;24.73;13.30;;;;;;;18.22;100.00;95291.97;5086299;28;20047;-75
2022/08/26 00:10:57;;;;;;;22.17;13.05;;;;;;;18.30;100.00;95298.34;5080331;28;20036;-74
2022/08/26 00:13:23;;;;;;;20.60;12.07;;;;;;;18.30;100.00;95283.16;5083949;28;20125;-75
2022/08/26 00:15:50;;;;;;;25.95;14.50;;;;;;;18.25;100.00;95290.56;5091320;28;20044;-74
2022/08/26 00:18:16;;;;;;;25.13;12.98;;;;;;;18.19;100.00;95287.31;5092297;28;20107;-75
2022/08/26 00:20:41;;;;;;;23.05;12.93;;;;;;;17.93;100.00;95290.09;5091522;28;20044;-76
2022/08/26 00:23:07;;;;;;;22.92;13.10;;;;;;;18.02;100.00;95295.41;5091458;28;20115;-75
2022/08/26 00:25:32;;;;;;;25.83;13.23;;;;;;;18.08;100.00;95281.56;5089629;28;20507;-75
2022/08/26 00:27:59;;;;;;;25.73;12.75;;;;;;;17.97;100.00;95296.34;5090833;28;20066;-75
2022/08/26 00:30:28;;;;;;;23.80;12.25;;;;;;;18.00;100.00;95290.38;5091598;28;20036;-75
2022/08/26 00:32:56;;;;;;;21.25;11.98;;;;;;;18.04;100.00;95291.31;5095416;28;20040;-75
2022/08/26 00:35:23;;;;;;;28.15;12.93;;;;;;;17.97;100.00;95291.03;5085845;28;20453;-75
2022/08/26 00:37:49;;;;;;;24.38;13.05;;;;;;;17.89;100.00;95294.50;5088356;28;20505;-76
2022/08/26 00:40:26;;;;;;;26.10;12.73;;;;;;;17.80;100.00;95290.00;5095810;28;20566;-75
2022/08/26 00:42:51;;;;;;;21.13;12.82;;;;;;;17.80;100.00;95292.66;5087364;28;20059;-75
2022/08/26 00:45:17;;;;;;;24.25;12.68;;;;;;;17.87;100.00;95288.72;5096567;28;20482;-76
2022/08/26 00:47:48;;;;;;;21.25;12.52;;;;;;;17.92;100.00;95288.56;5104729;28;20075;-76
2022/08/26 00:50:17;;;;;;;29.42;12.75;;;;;;;17.73;100.00;95289.72;5089565;28;20386;-75
2022/08/26 00:52:43;;;;;;;20.27;12.23;;;;;;;17.73;100.00;95287.06;5089762;28;20833;-76
2022/08/26 00:55:16;;;;;;;23.05;13.00;;;;;;;17.72;100.00;95296.13;5091802;28;20092;-75
2022/08/26 00:57:42;;;;;;;22.95;12.95;;;;;;;17.76;100.00;95290.97;5091117;28;20032;-75
2022/08/26 01:00:13;;;;;;;21.25;12.80;;;;;;;17.75;100.00;95284.84;5088462;28;20047;-75
2022/08/26 01:02:39;;;;;;;25.92;12.95;;;;;;;17.74;100.00;95288.63;5092952;28;20762;-75
2022/08/26 01:05:07;;;;;;;23.15;13.25;;;;;;;17.65;100.00;95290.53;5095249;28;20118;-75
2022/08/26 01:07:33;;;;;;;24.65;12.70;;;;;;;17.71;100.00;95283.91;5095497;28;20450;-76
2022/08/26 01:10:01;;;;;;;27.70;13.00;;;;;;;17.62;100.00;95285.84;5082667;28;20502;-75
2022/08/26 01:12:32;;;;;;;21.40;12.35;;;;;;;17.47;100.00;95290.59;5080667;28;20032;-75
2022/08/26 01:14:59;;;;;;;22.88;12.65;;;;;;;17.29;100.00;95289.09;5087107;28;20105;-75
2022/08/26 01:17:24;;;;;;;25.05;13.18;;;;;;;17.34;100.00;95286.28;5089289;28;20040;-76
2022/08/26 01:20:08;;;;;;;22.33;12.68;;;;;;;17.56;100.00;95292.47;5090407;28;20071;-76
2022/08/26 01:23:06;;;;;;;22.77;12.57;;;;;;;17.49;100.00;95288.38;5092202;28;20065;-75
2022/08/26 01:25:35;;;;;;;19.85;12.27;;;;;;;17.57;100.00;95288.69;5089812;28;20661;-75
2022/08/26 01:28:05;;;;;;;23.30;12.60;;;;;;;17.51;100.00;95289.97;5095839;28;20063;-75
2022/08/26 01:30:32;;;;;;;20.08;12.43;;;;;;;17.29;100.00;95283.78;5090966;28;20412;-75
2022/08/26 01:33:02;;;;;;;21.08;12.88;;;;;;;17.39;100.00;95278.09;5085415;28;20090;-75
2022/08/26 01:35:28;;;;;;;23.20;12.90;;;;;;;17.41;100.00;95286.56;5083919;28;20047;-75
2022/08/26 01:37:55;;;;;;;21.42;12.32;;;;;;;17.40;100.00;95290.31;5084692;28;20131;-75
2022/08/26 01:40:27;;;;;;;24.27;12.95;;;;;;;17.28;100.00;95282.19;5088579;28;20513;-75
2022/08/26 01:42:53;;;;;;;21.40;12.40;;;;;;;17.25;100.00;95288.16;5092811;28;20089;-75
2022/08/26 01:45:24;;;;;;;23.58;12.52;;;;;;;17.32;100.00;95283.13;5092210;28;20415;-75
2022/08/26 01:47:53;;;;;;;24.10;12.73;;;;;;;17.26;100.00;95284.41;5094520;28;20180;-75
2022/08/26 01:50:25;;;;;;;24.17;13.05;;;;;;;17.42;100.00;95282.78;5091134;28;20493;-74
2022/08/26 01:52:53;;;;;;;22.30;11.90;;;;;;;17.31;100.00;95281.56;5090030;28;20036;-75
2022/08/26 01:55:20;;;;;;;25.88;13.57;;;;;;;17.37;100.00;95285.63;5088615;28;20516;-75
2022/08/26 01:57:49;;;;;;;25.38;13.45;;;;;;;17.36;100.00;95289.38;5091848;28;20044;-75
2022/08/26 02:00:16;;;;;;;25.45;14.20;;;;;;;17.18;100.00;95287.88;5089725;28;20043;-75
2022/08/26 02:02:44;;;;;;;25.15;13.95;;;;;;;17.00;100.00;95292.44;5089313;28;20089;-75
2022/08/26 02:05:15;;;;;;;22.95;14.35;;;;;;;16.92;100.00;95291.34;5092496;28;20609;-75
2022/08/26 02:07:41;;;;;;;29.20;14.23;;;;;;;17.09;100.00;95296.63;5086665;28;20036;-75
2022/08/26 02:10:08;;;;;;;24.17;13.07;;;;;;;17.18;100.00;95293.19;5093975;28;20043;-75
2022/08/26 02:12:34;;;;;;;27.70;13.85;;;;;;;17.18;100.00;95293.19;5089063;28;20093;-75
2022/08/26 02:15:02;;;;;;;23.88;13.43;;;;;;;17.21;100.00;95287.22;5086174;28;20040;-75
2022/08/26 02:17:36;;;;;;;28.23;13.23;;;;;;;17.28;100.00;95287.53;5088410;28;20117;-75
2022/08/26 02:20:03;;;;;;;24.35;13.20;;;;;;;17.25;100.00;95288.94;5087046;28;20036;-75
2022/08/26 02:22:29;;;;;;;24.13;13.40;;;;;;;17.10;100.00;95287.56;5086660;28;20040;-75
2022/08/26 02:24:59;;;;;;;27.42;13.73;;;;;;;17.12;100.00;95285.41;5087940;28;20462;-75
2022/08/26 02:27:28;;;;;;;22.90;12.85;;;;;;;17.24;100.00;95291.91;5090277;28;20093;-74
2022/08/26 02:29:59;;;;;;;24.73;12.18;;;;;;;17.08;100.00;95289.78;5080050;28;20076;-75
2022/08/26 02:32:24;;;;;;;21.65;12.70;;;;;;;17.24;100.00;95281.28;5086326;28;20036;-75
2022/08/26 02:34:50;;;;;;;26.40;12.25;;;;;;;17.26;100.00;95285.19;5085973;28;20097;-74
2022/08/26 02:37:16;;;;;;;20.27;12.73;;;;;;;17.25;100.00;95288.94;5087658;28;20036;-75
2022/08/26 02:39:42;;;;;;;20.55;12.15;;;;;;;17.23;100.00;95279.72;5085314;28;20425;-75
2022/08/26 02:42:08;;;;;;;25.23;12.30;;;;;;;17.19;100.00;95284.13;5085846;28;20109;-74
2022/08/26 02:44:34;;;;;;;21.38;12.02;;;;;;;17.07;100.00;95280.22;5088202;28;20043;-75
2022/08/26 02:46:59;;;;;;;25.25;12.20;;;;;;;17.12;100.00;95282.72;5086961;28;20047;-75
2022/08/26 02:49:27;;;;;;;20.17;12.57;;;;;;;17.12;100.00;95285.41;5086625;28;20040;-75
2022/08/26 02:51:53;;;;;;;26.65;12.50;;;;;;;17.04;100.00;95278.22;5083098;28;20055;-75
2022/08/26 02:54:22;;;;;;;23.35;13.05;;;;;;;17.02;100.00;95280.38;5081504;28;20040;-75
2022/08/26 02:56:49;;;;;;;22.73;12.98;;;;;;;17.01;100.00;95276.19;5087418;28;20051;-75
2022/08/26 02:59:14;;;;;;;22.15;12.75;;;;;;;16.99;100.00;95275.69;5086171;28;20068;-75
2022/08/26 03:01:41;;;;;;;23.35;12.95;;;;;;;16.93;100.00;95282.28;5085109;28;20074;-75
2022/08/26 03:04:09;;;;;;;25.73;13.20;;;;;;;16.90;100.00;95277.59;5085109;28;20733;-75
2022/08/26 03:06:36;;;;;;;23.75;13.00;;;;;;;16.86;100.00;95276.66;5086226;28;20048;-75
2022/08/26 03:09:01;;;;;;;24.38;13.02;;;;;;;16.76;100.00;95278.50;5083815;28;20052;-76
2022/08/26 03:11:27;;;;;;;21.13;12.48;;;;;;;16.81;100.00;95280.25;5081071;28;20069;-76
2022/08/26 03:13:54;;;;;;;21.45;12.50;;;;;;;16.89;100.00;95271.50;5086829;28;20052;-76
2022/08/26 03:16:19;;;;;;;21.60;12.15;;;;;;;16.90;100.00;95273.06;5087605;28;20112;-76
2022/08/26 03:18:45;;;;;;;19.77;12.20;;;;;;;16.86;100.00;95274.00;5087002;28;20036;-76
2022/08/26 03:21:15;;;;;;;24.77;13.23;;;;;;;16.84;100.00;95274.31;5085261;28;20037;-76
2022/08/26 03:23:42;;;;;;;22.88;12.63;;;;;;;16.83;100.00;95266.66;5086419;28;20186;-76
2022/08/26 03:26:09;;;;;;;21.02;13.23;;;;;;;16.90;100.00;95274.94;5086699;28;20048;-76
2022/08/26 03:28:35;;;;;;;20.75;12.55;;;;;;;16.76;100.00;95267.88;5083948;28;20508;-76
2022/08/26 03:31:01;;;;;;;22.20;13.20;;;;;;;16.73;100.00;95273.84;5085284;28;20047;-76
2022/08/26 03:33:27;;;;;;;21.65;12.65;;;;;;;16.71;100.00;95276.03;5086817;28;20421;-76
2022/08/26 03:35:53;;;;;;;24.63;12.45;;;;;;;16.74;100.00;95275.41;5086030;28;20044;-75
2022/08/26 03:38:21;;;;;;;24.25;12.77;;;;;;;16.70;100.00;95274.47;5085815;28;20074;-76
2022/08/26 03:40:47;;;;;;;23.23;12.90;;;;;;;16.73;100.00;95268.50;5079274;28;20039;-76
2022/08/26 03:43:14;;;;;;;23.33;13.25;;;;;;;16.66;100.00;95268.22;5086124;28;20040;-76
2022/08/26 03:45:41;;;;;;;20.00;12.45;;;;;;;16.59;100.00;95267.91;5090955;28;20040;-76
2022/08/26 03:48:07;;;;;;;25.85;12.57;;;;;;;16.50;100.00;95270.56;5085799;28;20062;-76
2022/08/26 03:50:34;;;;;;;26.40;13.18;;;;;;;16.39;100.00;95264.81;5090588;28;20506;-76
2022/08/26 03:52:59;;;;;;;26.08;12.27;;;;;;;16.48;100.00;95266.66;5089622;28;20044;-76
2022/08/26 03:55:30;;;;;;;22.38;12.73;;;;;;;16.35;100.00;95266.50;5090723;28;20040;-76
2022/08/26 03:57:56;;;;;;;22.77;12.80;;;;;;;16.43;100.00;95271.06;5091014;28;20067;-75
2022/08/26 04:00:22;;;;;;;22.50;12.85;;;;;;;16.44;100.00;95267.28;5089293;28;20047;-76
2022/08/26 04:02:49;;;;;;;23.55;12.68;;;;;;;16.27;100.00;95272.59;5083642;28;20052;-75
2022/08/26 04:05:18;;;;;;;20.60;12.27;;;;;;;16.42;100.00;95269.47;5090291;28;20036;-76
2022/08/26 04:07:45;;;;;;;27.38;12.80;;;;;;;16.42;100.00;95269.47;5087638;28;20048;-75
2022/08/26 04:10:14;;;;;;;23.45;12.70;;;;;;;16.35;100.00;95263.84;5089240;28;20036;-76
2022/08/26 04:12:40;;;;;;;22.15;12.77;;;;;;;16.34;100.00;95262.28;5084706;28;20171;-74
2022/08/26 04:15:12;;;;;;;22.75;13.45;;;;;;;16.37;100.00;95266.97;5090571;28;20131;-74
2022/08/26 04:17:37;;;;;;;24.02;12.52;;;;;;;16.31;100.00;95262.91;5090070;28;20081;-74
2022/08/26 04:20:05;;;;;;;25.73;12.85;;;;;;;16.33;100.00;95271.34;5084011;28;20056;-74
2022/08/26 04:22:30;;;;;;;22.98;12.05;;;;;;;16.16;100.00;95253.53;5088810;28;20032;-75
2022/08/26 04:24:56;;;;;;;24.27;12.60;;;;;;;16.28;100.00;95260.88;5090779;28;20036;-75
2022/08/26 04:27:21;;;;;;;19.92;11.75;;;;;;;16.21;100.00;95263.22;5088326;28;20036;-75
2022/08/26 04:29:47;;;;;;;22.30;12.43;;;;;;;16.08;100.00;95265.69;5087289;28;20537;-75
2022/08/26 04:32:13;;;;;;;24.77;13.30;;;;;;;16.06;100.00;95262.56;5090340;28;20313;-75
2022/08/26 04:34:38;;;;;;;25.10;13.68;;;;;;;16.25;100.00;95269.47;5090111;28;20047;-75
2022/08/26 04:37:05;;;;;;;21.25;12.02;;;;;;;16.35;100.00;95266.50;5082019;28;20051;-74
2022/08/26 04:39:31;;;;;;;23.55;12.32;;;;;;;16.21;100.00;95263.22;5086667;28;20040;-75
2022/08/26 04:41:57;;;;;;;22.85;12.50;;;;;;;16.16;100.00;95261.50;5087354;28;20399;-75
2022/08/26 04:44:26;;;;;;;21.05;11.98;;;;;;;16.20;100.00;95269.63;5086778;28;20455;-74
2022/08/26 04:46:52;;;;;;;19.63;12.02;;;;;;;16.24;100.00;95265.25;5088656;28;20118;-75
2022/08/26 04:49:19;;;;;;;24.35;12.48;;;;;;;16.22;100.00;95262.09;5088703;28;20048;-75
2022/08/26 04:51:44;;;;;;;23.95;12.57;;;;;;;16.24;100.00;95259.94;5082522;28;20062;-75
2022/08/26 04:54:10;;;;;;;20.70;13.30;;;;;;;16.33;100.00;95260.72;5088212;28;20494;-75
2022/08/26 04:56:38;;;;;;;22.92;12.43;;;;;;;16.30;100.00;95264.00;5089801;28;20455;-74
2022/08/26 04:59:07;;;;;;;27.98;12.98;;;;;;;16.29;100.00;95265.09;5087272;28;20044;-75
2022/08/26 05:01:33;;;;;;;29.35;12.65;;;;;;;16.29;100.00;95273.03;5088619;28;20039;-75
2022/08/26 05:04:00;;;;;;;25.00;12.85;;;;;;;16.36;100.00;95270.72;5089329;28;20075;-75
2022/08/26 05:06:26;;;;;;;22.00;12.02;;;;;;;16.47;100.00;95270.41;5089185;28;20043;-75
2022/08/26 05:08:53;;;;;;;22.52;12.95;;;;;;;16.54;100.00;95276.03;5079298;28;20493;-75
2022/08/26 05:11:20;;;;;;;19.98;12.05;;;;;;;16.62;100.00;95269.94;5088947;28;20040;-74
2022/08/26 05:13:45;;;;;;;20.42;12.30;;;;;;;16.55;100.00;95272.28;5081468;28;20032;-75
2022/08/26 05:16:13;;;;;;;18.35;11.32;;;;;;;16.60;100.00;95274.78;5089285;28;20047;-75
2022/08/26 05:18:42;;;;;;;22.50;11.80;;;;;;;16.63;100.00;95274.16;5089094;28;20044;-75
2022/08/26 05:21:14;;;;;;;16.73;11.18;;;;;;;16.60;100.00;95282.75;5086729;28;20037;-75
2022/08/26 05:23:39;;;;;;;19.42;11.35;;;;;;;16.73;100.00;95289.78;5087747;28;20032;-75
2022/08/26 05:26:07;;;;;;;23.08;12.65;;;;;;;16.58;100.00;95287.63;5088193;28;20042;-75
2022/08/26 05:28:32;;;;;;;21.05;12.82;;;;;;;16.54;100.00;95291.97;5087460;28;20115;-75
2022/08/26 05:30:58;;;;;;;20.15;11.43;;;;;;;16.75;100.00;95287.59;5086845;28;20430;-75
2022/08/26 05:33:23;;;;;;;22.63;11.55;;;;;;;16.76;100.00;95288.38;5088312;28;20563;-75
2022/08/26 05:35:49;;;;;;;18.38;11.77;;;;;;;16.80;100.00;95290.09;5087328;28;20036;-75
2022/08/26 05:38:18;;;;;;;24.42;11.70;;;;;;;16.80;100.00;95295.41;5083154;28;20036;-75
2022/08/26 05:40:49;;;;;;;21.25;12.13;;;;;;;16.82;100.00;95291.66;5087665;28;20119;-75
2022/08/26 05:43:15;;;;;;;19.38;11.32;;;;;;;16.83;100.00;95298.53;5082733;28;20044;-75
2022/08/26 05:45:45;;;;;;;18.33;11.52;;;;;;;16.95;100.00;95299.50;5087742;28;20040;-75
2022/08/26 05:48:11;;;;;;;20.80;11.95;;;;;;;16.94;100.00;95305.13;5087249;28;20036;-75
2022/08/26 05:50:39;;;;;;;19.25;11.20;;;;;;;17.03;100.00;95308.53;5087943;28;20091;-75
2022/08/26 05:53:06;;;;;;;20.02;11.77;;;;;;;17.12;100.00;95306.66;5086108;28;20036;-75
2022/08/26 05:55:32;;;;;;;22.88;10.80;;;;;;;17.12;100.00;95295.22;5088771;28;20039;-74
2022/08/26 05:57:58;;;;;;;19.20;10.95;;;;;;;17.33;100.00;95305.97;5088565;28;20044;-75
2022/08/26 06:00:23;;;;;;;17.58;10.90;;;;;;;17.33;100.00;95300.66;5080008;28;20439;-75
2022/08/26 06:02:49;;;;;;;17.38;10.45;;;;;;;17.56;100.00;95305.75;5085582;28;20089;-75
2022/08/26 06:05:14;;;;;;;15.98;9.52;;;;;;;17.71;100.00;95305.22;5086236;28;20527;-75
2022/08/26 06:10:24;;;;;;;16.83;9.32;;;;;;;17.95;100.00;95298.56;5087536;28;20051;-74
2022/08/26 06:12:49;;;;;;;14.75;9.25;;;;;;;18.02;100.00;95304.16;5080028;28;20048;-76
2022/08/26 06:15:15;;;;;;;14.73;9.25;;;;;;;18.15;100.00;95308.47;5088259;28;20063;-75
2022/08/26 06:17:40;;;;;;;13.07;9.15;;;;;;;18.28;100.00;95300.56;5086458;28;20066;-79
2022/08/26 06:20:07;;;;;;;13.73;8.73;;;;;;;18.48;100.00;95305.13;5082900;28;20047;-75
2022/08/26 06:28:00;;;;;;;11.90;8.40;;;;;;;18.74;100.00;95301.47;5084271;28;20036;-76
2022/08/26 06:30:25;;;;;;;13.60;9.07;;;;;;;18.80;100.00;95300.16;5087520;28;20106;-76
2022/08/26 06:32:51;;;;;;;13.85;8.38;;;;;;;18.93;100.00;95302.91;5087824;28;20048;-76
2022/08/26 06:35:16;;;;;;;13.02;8.45;;;;;;;19.04;100.00;95304.84;5087479;28;20044;-76
2022/08/26 06:37:42;;;;;;;13.43;8.18;;;;;;;19.12;100.00;95302.41;5078894;28;20059;-76
2022/08/26 06:40:08;;;;;;;13.18;8.73;;;;;;;19.27;100.00;95301.03;5086780;28;20044;-76
2022/08/26 06:42:34;;;;;;;13.10;7.78;;;;;;;19.48;100.00;95296.41;5080015;28;20042;-76
2022/08/26 06:45:00;;;;;;;16.77;8.88;;;;;;;19.68;100.00;95297.44;5087698;28;20036;-76
2022/08/26 06:47:26;;;;;;;13.00;8.43;;;;;;;19.88;100.00;95303.81;5088288;28;20090;-78
2022/08/26 06:49:51;;;;;;;15.10;8.23;;;;;;;20.08;100.00;95301.34;5077561;28;20040;-75
2022/08/26 06:52:17;;;;;;;13.75;8.23;;;;;;;20.21;100.00;95302.91;5086335;28;20032;-76
2022/08/26 06:54:42;;;;;;;13.10;7.90;;;;;;;20.09;100.00;95297.56;5087578;28;20040;-76
2022/08/26 06:57:09;;;;;;;12.13;7.32;;;;;;;20.20;100.00;95298.66;5087795;28;20147;-75
2022/08/26 06:59:35;;;;;;;11.43;6.93;;;;;;;20.13;100.00;95293.09;5086364;28;20048;-75
2022/08/26 07:02:01;;;;;;;11.45;7.43;;;;;;;20.28;100.00;95304.97;5081702;28;20044;-76
2022/08/26 07:04:27;;;;;;;13.05;6.90;;;;;;;20.69;100.00;95297.03;5088510;28;20036;-77
2022/08/26 07:06:53;;;;;;;12.85;7.32;;;;;;;20.81;99.12;95299.63;5088170;28;20051;-75
2022/08/26 07:09:22;;;;;;;11.68;6.97;;;;;;;21.11;98.82;95305.41;5087069;28;20040;-76
2022/08/26 07:11:48;;;;;;;9.80;7.15;;;;;;;21.24;99.57;95314.16;5084554;28;20040;-77
2022/08/26 07:14:13;;;;;;;15.20;8.10;;;;;;;21.18;98.51;95306.75;5087545;28;20460;-76
2022/08/26 07:16:40;;;;;;;12.43;7.65;;;;;;;21.09;100.00;95309.56;5088289;28;20040;-76
2022/08/26 07:19:05;;;;;;;16.15;8.70;;;;;;;20.97;100.00;95306.94;5087227;28;20040;-78
2022/08/26 07:21:31;;;;;;;16.73;8.35;;;;;;;20.94;100.00;95303.81;5090287;28;20048;-77
2022/08/26 07:23:56;;;;;;;17.73;9.65;;;;;;;21.14;100.00;95305.88;5081606;28;20039;-76
2022/08/26 07:26:25;;;;;;;17.58;9.57;;;;;;;21.31;100.00;95304.78;5090940;28;20512;-76
2022/08/26 07:28:53;;;;;;;14.30;8.32;;;;;;;21.25;100.00;95305.03;5090232;28;20040;-76
2022/08/26 07:31:21;;;;;;;15.80;8.88;;;;;;;21.38;100.00;95310.31;5088988;28;20047;-76
2022/08/26 07:33:47;;;;;;;18.63;9.15;;;;;;;21.37;100.00;95308.75;5090979;28;20048;-76
2022/08/26 07:36:14;;;;;;;15.65;8.57;;;;;;;21.44;100.00;95314.28;5091409;28;20559;-76
2022/08/26 07:38:40;;;;;;;12.90;8.98;;;;;;;21.27;100.00;95305.44;5083622;28;20044;-76
2022/08/26 07:41:07;;;;;;;15.25;9.18;;;;;;;21.26;100.00;95309.25;5087259;28;20065;-77
2022/08/26 07:43:34;;;;;;;17.60;9.10;;;;;;;21.21;100.00;95314.84;5089180;28;20043;-76
2022/08/26 07:46:00;;;;;;;14.57;8.60;;;;;;;21.43;100.00;95312.72;5090477;28;20429;-76
2022/08/26 07:48:25;;;;;;;15.65;8.52;;;;;;;21.59;100.00;95310.88;5087281;28;20038;-76
2022/08/26 07:50:52;;;;;;;18.92;8.85;;;;;;;21.81;100.00;95316.75;5087660;28;20048;-76
2022/08/26 07:53:19;;;;;;;13.55;7.40;;;;;;;21.85;94.92;95312.28;5089783;28;20036;-76
2022/08/26 07:55:44;;;;;;;10.77;7.55;;;;;;;21.81;95.24;95319.44;5090125;28;20050;-76
2022/08/26 07:58:10;;;;;;;12.10;7.47;;;;;;;21.89;98.26;95318.47;5086954;28;20044;-76
2022/08/26 08:00:36;;;;;;;11.48;8.15;;;;;;;22.26;91.77;95315.47;5090013;28;20039;-76
2022/08/26 08:03:04;;;;;;;11.48;7.43;;;;;;;21.87;93.36;95320.72;5089522;28;20149;-76
2022/08/26 08:05:31;;;;;;;9.88;7.50;;;;;;;22.02;93.36;95315.69;5090203;28;20051;-76
2022/08/26 08:08:02;;;;;;;10.45;7.93;;;;;;;21.83;91.52;95313.72;5088121;28;20040;-76
2022/08/26 08:10:28;;;;;;;9.90;7.45;;;;;;;22.04;93.29;95318.78;5088992;28;20093;-76
2022/08/26 08:12:55;;;;;;;11.88;7.97;;;;;;;21.93;92.77;95319.31;5087845;28;20741;-77
2022/08/26 08:15:25;;;;;;;15.10;7.57;;;;;;;21.94;92.03;95315.53;5090475;28;20032;-76
2022/08/26 08:17:51;;;;;;;12.65;7.45;;;;;;;22.20;91.84;95314.19;5090245;28;20093;-76
2022/08/26 08:20:17;;;;;;;11.48;7.18;;;;;;;22.31;90.72;95312.53;5089828;28;20036;-76
2022/08/26 08:22:42;;;;;;;11.70;7.25;;;;;;;22.37;89.47;95312.28;5088855;28;20059;-76
2022/08/26 08:25:08;;;;;;;12.40;8.13;;;;;;;22.08;88.14;95314.28;5078401;28;20123;-76
2022/08/26 08:27:35;;;;;;;10.95;7.68;;;;;;;22.06;91.35;95317.31;5090536;28;20529;-76
2022/08/26 08:30:02;;;;;;;14.13;8.35;;;;;;;22.42;91.13;95317.38;5084409;28;20050;-76
2022/08/26 08:32:28;;;;;;;10.02;7.82;;;;;;;22.24;89.32;95315.06;5088958;28;20093;-76
2022/08/26 08:34:54;;;;;;;13.43;7.70;;;;;;;22.49;86.30;95317.53;5089083;28;20119;-76
2022/08/26 08:37:20;;;;;;;12.13;8.07;;;;;;;22.57;86.86;95313.88;5088593;28;20486;-76
2022/08/26 08:39:46;;;;;;;16.15;7.82;;;;;;;22.48;85.16;95315.97;5089258;28;20063;-77
2022/08/26 08:42:47;;;;;;;14.68;8.05;;;;;;;22.38;89.50;95316.53;5088150;28;20036;-76
2022/08/26 08:45:36;;;;;;;13.18;8.00;;;;;;;22.43;87.87;95310.91;5088867;28;20063;-76
2022/08/26 08:48:16;;;;;;;13.93;8.27;;;;;;;22.54;86.41;95319.94;5087928;28;20036;-76
2022/08/26 08:51:07;;;;;;;12.40;8.30;;;;;;;22.44;87.92;95309.75;5086932;28;20043;-76
2022/08/26 08:53:40;;;;;;;14.93;7.57;;;;;;;22.60;90.37;95318.53;5071026;28;20063;-77
2022/08/26 08:56:41;;;;;;;14.85;8.18;;;;;;;22.74;87.17;95319.94;5089560;28;20040;-77
2022/08/26 08:59:19;;;;;;;14.88;8.10;;;;;;;22.79;85.92;95306.28;5082473;28;20060;-76
2022/08/26 09:01:51;;;;;;;17.08;8.98;;;;;;;22.91;87.34;95310.72;5084568;28;20069;-76
2022/08/26 09:04:40;;;;;;;10.70;8.25;;;;;;;22.69;86.37;95320.25;5088783;28;20488;-77
2022/08/26 09:07:10;;;;;;;14.13;8.90;;;;;;;22.53;88.36;95313.03;5088829;28;20540;-77
2022/08/26 09:09:43;;;;;;;17.05;9.27;;;;;;;22.63;87.07;95307.09;5084501;28;20517;-77
2022/08/26 09:12:15;;;;;;;15.27;9.40;;;;;;;22.20;88.20;95306.16;5084703;28;20036;-76
2022/08/26 09:14:43;;;;;;;13.02;9.10;;;;;;;22.30;88.33;95315.56;5089549;28;20043;-76
2022/08/26 09:17:34;;;;;;;14.38;10.25;;;;;;;22.51;87.64;95309.91;5088489;28;20044;-76
2022/08/26 09:20:13;;;;;;;17.42;9.80;;;;;;;22.40;86.38;95309.69;5086827;28;20043;-76
2022/08/26 09:22:38;;;;;;;18.33;9.38;;;;;;;22.55;91.25;95310.00;5084781;28;20040;-76
2022/08/26 09:25:08;;;;;;;14.32;9.27;;;;;;;22.57;88.66;95311.19;5089173;28;20036;-76
2022/08/26 09:27:41;;;;;;;19.65;10.30;;;;;;;22.56;88.87;95312.31;5088416;28;20044;-76
2022/08/26 09:30:09;;;;;;;23.43;9.83;;;;;;;22.43;89.13;95308.22;5086005;28;20040;-76
2022/08/26 09:32:35;;;;;;;15.13;9.52;;;;;;;22.63;90.09;95309.78;5086210;28;20654;-76
2022/08/26 09:35:06;;;;;;;18.08;9.95;;;;;;;22.46;88.04;95307.50;5088331;28;20119;-76
2022/08/26 09:37:41;;;;;;;14.68;10.07;;;;;;;22.81;87.48;95301.31;5088444;28;20048;-77
2022/08/26 09:40:18;;;;;;;16.40;9.93;;;;;;;22.88;87.59;95306.81;5086456;28;20040;-76
2022/08/26 09:42:43;;;;;;;16.25;9.90;;;;;;;22.71;87.15;95291.16;5087206;28;20047;-75
2022/08/26 09:45:11;;;;;;;18.05;9.70;;;;;;;23.10;85.05;95296.50;5088984;28;20040;-77
2022/08/26 09:47:46;;;;;;;14.80;10.30;;;;;;;23.10;84.32;95297.28;5085063;28;20127;-76
2022/08/26 09:50:50;;;;;;;20.77;10.45;;;;;;;23.31;83.61;95288.09;5086910;28;20063;-76
2022/08/26 09:53:21;;;;;;;16.67;10.55;;;;;;;23.54;84.50;95288.09;5087165;28;20040;-76
2022/08/26 09:56:11;;;;;;;18.77;10.93;;;;;;;23.48;82.23;95284.16;5087998;28;20051;-76
2022/08/26 09:58:42;;;;;;;21.15;10.93;;;;;;;23.49;82.22;95280.34;5087662;28;20036;-76
2022/08/26 10:01:32;;;;;;;17.88;10.73;;;;;;;23.64;79.49;95276.75;5080130;28;20039;-76
2022/08/26 10:04:08;;;;;;;15.50;10.10;;;;;;;23.92;80.43;95270.31;5087517;28;20127;-76
2022/08/26 10:06:39;;;;;;;22.67;11.00;;;;;;;24.26;78.40;95264.25;5088509;28;20422;-76
2022/08/26 10:09:09;;;;;;;21.52;10.80;;;;;;;24.35;77.07;95257.47;5085591;28;20128;-76
2022/08/26 10:11:46;;;;;;;17.05;10.38;;;;;;;24.94;76.71;95257.03;5087616;28;20120;-76
2022/08/26 10:14:19;;;;;;;20.42;9.88;;;;;;;25.31;75.23;95253.56;5100859;28;20055;-76
2022/08/26 10:16:55;;;;;;;16.65;9.18;;;;;;;25.64;71.57;95254.59;5086253;28;20043;-76
2022/08/26 10:19:27;;;;;;;22.15;9.48;;;;;;;25.86;70.64;95250.16;5082106;28;20040;-76
2022/08/26 10:22:11;;;;;;;20.40;10.30;;;;;;;26.05;69.03;95251.84;5083041;28;20086;-76
2022/08/26 10:24:42;;;;;;;19.55;9.30;;;;;;;26.33;68.14;95242.38;5086980;28;20096;-76
2022/08/26 10:27:33;;;;;;;18.85;8.60;;;;;;;26.61;64.51;95243.66;5088037;28;20044;-76
2022/08/26 10:30:16;;;;;;;14.93;8.98;;;;;;;27.45;63.69;95235.38;5087275;28;20630;-76
2022/08/26 10:32:47;;;;;;;19.40;9.77;;;;;;;27.22;60.98;95227.63;5081879;28;20537;-76
2022/08/26 10:35:16;;;;;;;18.85;9.07;;;;;;;26.69;64.14;95234.44;5085958;28;20056;-76
2022/08/26 10:37:48;;;;;;;19.52;10.02;;;;;;;27.38;62.79;95219.16;5087565;28;20047;-77
2022/08/26 10:40:26;;;;;;;24.10;9.77;;;;;;;28.03;62.02;95219.16;5080212;28;20517;-77
2022/08/26 10:43:04;;;;;;;15.93;9.10;;;;;;;28.31;61.13;95207.47;5082929;28;20051;-77
2022/08/26 10:45:36;;;;;;;21.25;10.05;;;;;;;28.51;57.81;95215.91;5086378;28;20040;-78
2022/08/26 10:48:09;;;;;;;15.68;9.52;;;;;;;28.93;57.42;95204.50;5084572;28;20403;-77
2022/08/26 10:50:38;;;;;;;17.70;9.60;;;;;;;29.88;54.96;95206.94;5086192;28;20056;-76
2022/08/26 10:53:16;;;;;;;16.85;9.60;;;;;;;29.12;55.15;95204.00;5089359;28;20044;-77
2022/08/26 10:55:47;;;;;;;21.73;10.15;;;;;;;28.91;53.44;95198.72;5090913;28;20525;-76
2022/08/26 10:58:15;;;;;;;20.27;9.70;;;;;;;29.98;53.75;95197.13;5089750;28;20036;-77
2022/08/26 11:03:45;;;;;;;;;;;;;;;30.11;52.78;95189.25;5090799;28;20042;-77
2022/08/26 11:06:17;;;;;;;21.27;10.38;;;;;;;30.08;52.50;95183.88;5101191;28;19969;-77
2022/08/26 11:08:49;;;;;;;18.75;9.70;;;;;;;30.95;50.30;95178.13;5084463;28;20052;-77
2022/08/26 11:11:40;;;;;;;19.20;10.93;;;;;;;30.30;51.81;95174.31;5112050;28;20036;-77
2022/08/26 11:14:18;;;;;;;28.05;10.27;;;;;;;30.50;50.97;95173.69;5099946;27;20121;-78
2022/08/26 11:16:52;;;;;;;17.70;9.68;;;;;;;29.94;53.04;95176.63;5092797;28;20079;-77
2022/08/26 11:19:40;;;;;;;20.25;9.40;;;;;;;29.14;54.45;95171.88;5095143;28;20050;-78
2022/08/26 11:22:08;;;;;;;18.38;10.07;;;;;;;29.67;52.94;95174.56;5090635;28;20052;-77
2022/08/26 11:24:59;;;;;;;18.17;10.05;;;;;;;29.83;51.80;95163.97;5088802;28;20044;-77
2022/08/26 11:27:27;;;;;;;19.08;10.80;;;;;;;28.31;53.58;95163.41;5087250;28;20111;-77
2022/08/26 11:30:27;;;;;;;30.58;10.50;;;;;;;30.10;51.25;95160.59;5082384;28;20040;-77
2022/08/26 11:32:56;;;;;;;18.23;10.15;;;;;;;30.45;49.17;95158.63;5089439;28;20052;-78
2022/08/26 11:35:24;;;;;;;20.40;10.82;;;;;;;31.07;48.17;95158.56;5091504;28;20032;-78